createdAt,value
2018-06-25T00:00:20.011Z,16.38
2018-06-25T00:01:20.245Z,16.41
2018-06-25T00:02:20.468Z,16.35
2018-06-25T00:03:20.699Z,16.33
2018-06-25T00:04:20.932Z,16.39
2018-06-25T00:05:21.165Z,16.33
2018-06-25T00:06:21.389Z,16.35
2018-06-25T00:07:21.625Z,16.38
2018-06-25T00:08:21.839Z,16.33
2018-06-25T00:09:22.067Z,16.35
2018-06-25T00:10:22.295Z,16.35
2018-06-25T00:11:22.526Z,16.39
2018-06-25T00:12:22.751Z,16.43
2018-06-25T00:13:22.979Z,16.36
2018-06-25T00:14:23.207Z,16.38
2018-06-25T00:15:23.428Z,16.42
2018-06-25T00:16:23.656Z,16.41
2018-06-25T00:17:23.879Z,16.43
2018-06-25T00:18:24.108Z,16.42
2018-06-25T00:19:24.337Z,16.31
2018-06-25T00:20:24.573Z,16.36
2018-06-25T00:21:24.792Z,16.43
2018-06-25T00:22:25.019Z,16.39
2018-06-25T00:23:25.250Z,16.36
2018-06-25T00:24:25.495Z,16.36
2018-06-25T00:25:25.709Z,16.39
2018-06-25T00:26:25.937Z,16.43
2018-06-25T00:27:26.172Z,16.42
2018-06-25T00:28:26.387Z,16.46
2018-06-25T00:29:26.613Z,16.33
2018-06-25T00:30:26.849Z,16.42
2018-06-25T00:31:27.079Z,16.35
2018-06-25T00:32:27.308Z,16.36
2018-06-25T00:33:27.534Z,16.38
2018-06-25T00:34:27.758Z,16.33
2018-06-25T00:35:27.990Z,16.41
2018-06-25T00:36:28.220Z,16.38
2018-06-25T00:37:28.448Z,16.39
2018-06-25T00:38:28.693Z,16.38
2018-06-25T00:39:28.904Z,16.36
2018-06-25T00:40:29.140Z,16.43
2018-06-25T00:41:29.358Z,16.33
2018-06-25T00:42:29.587Z,16.36
2018-06-25T00:43:29.815Z,16.33
2018-06-25T00:44:30.054Z,16.39
2018-06-25T00:45:30.272Z,16.31
2018-06-25T00:46:30.496Z,16.36
2018-06-25T00:47:30.721Z,16.33
2018-06-25T00:48:30.951Z,16.24
2018-06-25T00:49:31.182Z,16.20
2018-06-25T00:50:31.407Z,16.26
2018-06-25T00:51:31.634Z,16.24
2018-06-25T00:52:31.863Z,16.21
2018-06-25T00:53:32.083Z,16.32
2018-06-25T00:54:32.309Z,16.31
2018-06-25T00:55:32.538Z,16.29
2018-06-25T00:56:32.764Z,16.28
2018-06-25T00:57:32.992Z,16.28
2018-06-25T00:58:33.235Z,16.31
2018-06-25T00:59:33.443Z,16.29
2018-06-25T01:00:33.663Z,16.20
2018-06-25T01:01:33.913Z,16.24
2018-06-25T01:02:34.142Z,16.24
2018-06-25T01:03:34.379Z,16.23
2018-06-25T01:04:34.596Z,16.21
2018-06-25T01:05:34.819Z,16.17
2018-06-25T01:06:35.045Z,16.23
2018-06-25T01:07:35.273Z,16.16
2018-06-25T01:08:35.502Z,16.20
2018-06-25T01:09:35.730Z,16.16
2018-06-25T01:10:35.976Z,16.20
2018-06-25T01:11:36.193Z,16.16
2018-06-25T01:12:36.410Z,16.15
2018-06-25T01:13:36.644Z,16.20
2018-06-25T01:14:36.874Z,16.16
2018-06-25T01:15:37.109Z,16.23
2018-06-25T01:16:37.328Z,16.13
2018-06-25T01:17:37.560Z,16.21
2018-06-25T01:18:37.787Z,16.17
2018-06-25T01:19:38.015Z,16.23
2018-06-25T01:20:38.244Z,16.23
2018-06-25T01:21:38.478Z,16.20
2018-06-25T01:22:38.700Z,16.12
2018-06-25T01:23:38.927Z,16.13
2018-06-25T01:24:39.155Z,16.13
2018-06-25T01:25:39.383Z,16.12
2018-06-25T01:26:39.614Z,16.10
2018-06-25T01:27:39.838Z,16.12
2018-06-25T01:28:40.070Z,16.10
2018-06-25T01:29:40.287Z,16.08
2018-06-25T01:30:40.507Z,16.12
2018-06-25T01:31:40.736Z,16.16
2018-06-25T01:32:40.975Z,16.16
2018-06-25T01:33:41.192Z,16.10
2018-06-25T01:34:41.421Z,16.15
2018-06-25T01:35:41.651Z,16.16
2018-06-25T01:36:41.871Z,16.08
2018-06-25T01:37:42.101Z,16.05
2018-06-25T01:38:42.335Z,16.08
2018-06-25T01:39:42.556Z,16.12
2018-06-25T01:40:42.788Z,16.09
2018-06-25T01:41:43.017Z,16.15
2018-06-25T01:42:43.242Z,16.08
2018-06-25T01:43:43.472Z,16.08
2018-06-25T01:44:43.690Z,16.12
2018-06-25T01:45:43.923Z,16.08
2018-06-25T01:46:44.146Z,16.10
2018-06-25T01:47:44.384Z,16.02
2018-06-25T01:48:44.603Z,16.09
2018-06-25T01:49:44.827Z,16.08
2018-06-25T01:50:45.056Z,16.02
2018-06-25T01:51:45.289Z,16.02
2018-06-25T01:52:45.515Z,16.04
2018-06-25T01:53:45.743Z,16.08
2018-06-25T01:54:45.971Z,16.05
2018-06-25T01:55:46.196Z,16.04
2018-06-25T01:56:46.428Z,16.01
2018-06-25T01:57:47.320Z,15.97
2018-06-25T01:58:46.918Z,15.95
2018-06-25T01:59:47.162Z,15.98
2018-06-25T02:00:47.373Z,16.00
2018-06-25T02:01:47.602Z,16.02
2018-06-25T02:02:47.832Z,15.97
2018-06-25T02:03:48.061Z,16.04
2018-06-25T02:04:48.290Z,16.01
2018-06-25T02:05:48.517Z,16.02
2018-06-25T02:06:48.746Z,15.98
2018-06-25T02:07:49.819Z,15.91
2018-06-25T02:08:49.167Z,15.90
2018-06-25T02:09:49.395Z,15.83
2018-06-25T02:10:49.624Z,15.77
2018-06-25T02:11:49.852Z,15.83
2018-06-25T02:12:50.078Z,15.82
2018-06-25T02:13:50.311Z,15.88
2018-06-25T02:14:50.537Z,15.82
2018-06-25T02:15:51.334Z,15.86
2018-06-25T02:16:51.044Z,15.84
2018-06-25T02:17:51.275Z,15.82
2018-06-25T02:18:51.496Z,15.82
2018-06-25T02:19:51.725Z,15.77
2018-06-25T02:20:51.952Z,15.75
2018-06-25T02:21:52.180Z,15.77
2018-06-25T02:22:52.408Z,15.75
2018-06-25T02:23:52.636Z,15.65
2018-06-25T02:24:52.865Z,15.79
2018-06-25T02:25:53.087Z,15.82
2018-06-25T02:26:53.317Z,15.73
2018-06-25T02:27:53.549Z,15.77
2018-06-25T02:28:53.777Z,15.75
2018-06-25T02:29:54.014Z,15.77
2018-06-25T02:30:54.230Z,15.86
2018-06-25T02:31:54.457Z,15.84
2018-06-25T02:32:54.738Z,15.82
2018-06-25T02:33:54.904Z,15.88
2018-06-25T02:34:55.134Z,15.76
2018-06-25T02:35:55.363Z,15.65
2018-06-25T02:36:55.591Z,15.79
2018-06-25T02:37:55.821Z,15.76
2018-06-25T02:38:56.043Z,15.76
2018-06-25T02:39:56.275Z,15.67
2018-06-25T02:40:56.496Z,15.72
2018-06-25T02:41:56.728Z,15.70
2018-06-25T02:42:56.957Z,15.76
2018-06-25T02:43:57.188Z,15.80
2018-06-25T02:44:57.414Z,15.73
2018-06-25T02:45:57.651Z,15.70
2018-06-25T02:46:57.879Z,15.76
2018-06-25T02:47:58.108Z,15.72
2018-06-25T02:48:58.336Z,15.67
2018-06-25T02:49:58.565Z,15.65
2018-06-25T02:50:58.808Z,15.67
2018-06-25T02:51:59.012Z,15.73
2018-06-25T02:52:59.239Z,15.72
2018-06-25T02:53:59.479Z,15.68
2018-06-25T02:54:59.695Z,15.62
2018-06-25T02:55:59.927Z,15.70
2018-06-25T02:57:00.154Z,15.61
2018-06-25T02:58:00.383Z,15.61
2018-06-25T02:59:00.610Z,15.62
2018-06-25T03:00:00.841Z,15.57
2018-06-25T03:01:01.068Z,15.59
2018-06-25T03:02:01.302Z,15.58
2018-06-25T03:03:01.526Z,15.58
2018-06-25T03:04:01.756Z,15.59
2018-06-25T03:05:01.991Z,15.58
2018-06-25T03:06:02.221Z,15.51
2018-06-25T03:07:02.440Z,15.57
2018-06-25T03:08:02.667Z,15.59
2018-06-25T03:09:02.902Z,15.57
2018-06-25T03:10:03.838Z,15.59
2018-06-25T03:11:03.317Z,15.57
2018-06-25T03:12:03.538Z,15.61
2018-06-25T03:13:03.767Z,15.61
2018-06-25T03:14:03.989Z,15.68
2018-06-25T03:15:04.835Z,15.62
2018-06-25T03:16:04.436Z,15.64
2018-06-25T03:17:04.694Z,15.73
2018-06-25T03:18:04.888Z,15.80
2018-06-25T03:19:05.114Z,15.76
2018-06-25T03:20:05.343Z,15.77
2018-06-25T03:21:05.572Z,15.62
2018-06-25T03:22:05.804Z,15.65
2018-06-25T03:23:06.031Z,15.75
2018-06-25T03:24:06.259Z,15.65
2018-06-25T03:25:06.484Z,15.70
2018-06-25T03:26:06.713Z,15.72
2018-06-25T03:27:06.941Z,15.76
2018-06-25T03:28:07.172Z,15.82
2018-06-25T03:29:07.444Z,15.73
2018-06-25T03:30:07.625Z,15.64
2018-06-25T03:31:07.851Z,15.68
2018-06-25T03:32:08.090Z,15.62
2018-06-25T03:33:08.309Z,15.64
2018-06-25T03:34:08.537Z,15.65
2018-06-25T03:35:08.762Z,15.62
2018-06-25T03:36:08.991Z,15.73
2018-06-25T03:37:09.220Z,15.76
2018-06-25T03:38:09.451Z,15.67
2018-06-25T03:39:09.682Z,15.67
2018-06-25T03:40:09.912Z,15.72
2018-06-25T03:41:10.140Z,15.73
2018-06-25T03:42:10.369Z,15.80
2018-06-25T03:43:10.633Z,15.79
2018-06-25T03:44:10.827Z,15.70
2018-06-25T03:45:11.049Z,15.68
2018-06-25T03:46:11.280Z,15.73
2018-06-25T03:47:11.508Z,15.73
2018-06-25T03:48:11.815Z,15.77
2018-06-25T03:49:11.964Z,15.75
2018-06-25T03:50:12.192Z,15.77
2018-06-25T03:51:12.422Z,15.86
2018-06-25T03:52:12.652Z,15.83
2018-06-25T03:53:12.979Z,15.77
2018-06-25T03:54:13.121Z,15.79
2018-06-25T03:55:13.345Z,15.75
2018-06-25T03:56:13.572Z,15.80
2018-06-25T03:57:13.802Z,15.83
2018-06-25T03:58:14.030Z,15.79
2018-06-25T03:59:14.264Z,15.76
2018-06-25T04:00:14.491Z,15.79
2018-06-25T04:01:14.715Z,15.83
2018-06-25T04:02:14.945Z,15.82
2018-06-25T04:03:15.170Z,15.76
2018-06-25T04:04:15.398Z,15.76
2018-06-25T04:05:15.629Z,15.72
2018-06-25T04:06:15.858Z,15.73
2018-06-25T04:07:16.087Z,15.61
2018-06-25T04:08:16.312Z,15.62
2018-06-25T04:09:16.546Z,15.57
2018-06-25T04:10:16.780Z,15.58
2018-06-25T04:11:17.004Z,15.58
2018-06-25T04:12:17.237Z,15.65
2018-06-25T04:13:17.462Z,15.64
2018-06-25T04:14:17.693Z,15.61
2018-06-25T04:15:17.926Z,15.62
2018-06-25T04:16:18.158Z,15.70
2018-06-25T04:17:18.381Z,15.73
2018-06-25T04:18:18.613Z,15.65
2018-06-25T04:19:18.838Z,15.75
2018-06-25T04:20:19.072Z,15.75
2018-06-25T04:21:19.295Z,15.68
2018-06-25T04:22:19.528Z,15.75
2018-06-25T04:23:19.758Z,15.65
2018-06-25T04:24:19.992Z,15.64
2018-06-25T04:25:20.212Z,15.62
2018-06-25T04:26:20.446Z,15.68
2018-06-25T04:27:20.672Z,15.68
2018-06-25T04:28:20.902Z,15.80
2018-06-25T04:29:21.135Z,15.80
2018-06-25T04:30:21.362Z,15.84
2018-06-25T04:31:21.592Z,15.84
2018-06-25T04:32:21.821Z,15.83
2018-06-25T04:33:22.049Z,15.91
2018-06-25T04:34:22.277Z,15.83
2018-06-25T04:35:22.502Z,15.91
2018-06-25T04:36:22.729Z,15.72
2018-06-25T04:37:22.967Z,15.75
2018-06-25T04:38:23.192Z,15.76
2018-06-25T04:39:23.421Z,15.73
2018-06-25T04:40:23.745Z,15.80
2018-06-25T04:41:23.880Z,15.80
2018-06-25T04:42:24.105Z,15.92
2018-06-25T04:43:24.335Z,15.90
2018-06-25T04:44:24.565Z,15.92
2018-06-25T04:45:24.790Z,16.00
2018-06-25T04:46:25.017Z,16.10
2018-06-25T04:47:25.247Z,16.16
2018-06-25T04:48:25.478Z,16.13
2018-06-25T04:49:25.701Z,16.26
2018-06-25T04:50:25.974Z,16.16
2018-06-25T04:51:26.164Z,16.23
2018-06-25T04:52:26.387Z,16.24
2018-06-25T04:53:26.620Z,16.24
2018-06-25T04:54:26.844Z,16.23
2018-06-25T04:55:27.075Z,16.12
2018-06-25T04:56:27.301Z,16.16
2018-06-25T04:57:27.534Z,16.12
2018-06-25T04:58:27.764Z,16.17
2018-06-25T04:59:28.008Z,16.28
2018-06-25T05:00:28.225Z,16.24
2018-06-25T05:01:28.454Z,16.32
2018-06-25T05:02:28.683Z,16.36
2018-06-25T05:03:28.913Z,16.38
2018-06-25T05:04:29.146Z,16.33
2018-06-25T05:05:29.373Z,16.43
2018-06-25T05:06:29.601Z,16.39
2018-06-25T05:07:29.833Z,16.38
2018-06-25T05:08:30.066Z,16.47
2018-06-25T05:09:30.297Z,16.49
2018-06-25T05:10:30.526Z,16.64
2018-06-25T05:11:30.755Z,16.60
2018-06-25T05:12:30.984Z,16.69
2018-06-25T05:13:31.212Z,16.91
2018-06-25T05:14:31.443Z,16.97
2018-06-25T05:15:31.674Z,16.99
2018-06-25T05:16:31.900Z,17.08
2018-06-25T05:17:32.127Z,17.23
2018-06-25T05:18:32.352Z,17.24
2018-06-25T05:19:32.578Z,17.27
2018-06-25T05:20:32.806Z,17.30
2018-06-25T05:21:33.034Z,17.34
2018-06-25T05:22:33.266Z,17.46
2018-06-25T05:23:33.504Z,17.45
2018-06-25T05:24:33.723Z,17.48
2018-06-25T05:25:33.952Z,17.63
2018-06-25T05:26:34.182Z,17.54
2018-06-25T05:27:34.410Z,17.63
2018-06-25T05:28:34.643Z,17.65
2018-06-25T05:29:34.871Z,17.79
2018-06-25T05:30:35.102Z,17.74
2018-06-25T05:31:35.328Z,17.82
2018-06-25T05:32:35.558Z,17.79
2018-06-25T05:33:35.787Z,17.80
2018-06-25T05:34:36.016Z,17.85
2018-06-25T05:35:36.244Z,17.76
2018-06-25T05:36:36.475Z,17.72
2018-06-25T05:37:36.703Z,17.72
2018-06-25T05:38:36.933Z,17.76
2018-06-25T05:39:37.213Z,17.71
2018-06-25T05:40:37.390Z,17.65
2018-06-25T05:41:37.624Z,17.68
2018-06-25T05:42:37.850Z,17.51
2018-06-25T05:43:38.080Z,17.33
2018-06-25T05:44:38.305Z,17.24
2018-06-25T05:45:38.536Z,17.29
2018-06-25T05:46:38.764Z,17.23
2018-06-25T05:47:38.993Z,17.12
2018-06-25T05:48:39.223Z,16.93
2018-06-25T05:49:39.459Z,16.91
2018-06-25T05:50:39.679Z,16.66
2018-06-25T05:51:39.908Z,16.74
2018-06-25T05:52:40.143Z,16.61
2018-06-25T05:53:40.367Z,16.76
2018-06-25T05:54:40.594Z,16.81
2018-06-25T05:55:40.823Z,16.89
2018-06-25T05:56:41.051Z,17.15
2018-06-25T05:57:41.280Z,17.19
2018-06-25T05:58:41.510Z,17.30
2018-06-25T05:59:41.738Z,17.36
2018-06-25T06:00:41.969Z,17.60
2018-06-25T06:01:42.195Z,17.74
2018-06-25T06:02:42.422Z,18.01
2018-06-25T06:03:42.649Z,18.29
2018-06-25T06:04:42.880Z,18.28
2018-06-25T06:05:43.109Z,18.18
2018-06-25T06:06:43.335Z,18.18
2018-06-25T06:07:43.561Z,18.08
2018-06-25T06:08:43.793Z,18.04
2018-06-25T06:09:44.019Z,18.22
2018-06-25T06:10:44.248Z,18.18
2018-06-25T06:11:44.480Z,18.43
2018-06-25T06:12:44.711Z,18.35
2018-06-25T06:13:44.939Z,18.43
2018-06-25T06:14:45.180Z,18.44
2018-06-25T06:15:45.401Z,18.45
2018-06-25T06:16:45.630Z,18.59
2018-06-25T06:17:45.860Z,18.47
2018-06-25T06:18:46.093Z,18.44
2018-06-25T06:19:46.320Z,18.44
2018-06-25T06:20:46.551Z,18.44
2018-06-25T06:21:46.785Z,18.58
2018-06-25T06:22:47.011Z,18.56
2018-06-25T06:23:47.245Z,18.45
2018-06-25T06:24:47.478Z,18.63
2018-06-25T06:25:47.708Z,18.77
2018-06-25T06:26:47.941Z,18.93
2018-06-25T06:27:48.172Z,19.02
2018-06-25T06:28:48.394Z,19.02
2018-06-25T06:29:48.631Z,19.15
2018-06-25T06:30:48.856Z,19.19
2018-06-25T06:31:49.097Z,19.67
2018-06-25T06:32:49.320Z,19.85
2018-06-25T06:33:49.538Z,19.82
2018-06-25T06:34:49.769Z,19.91
2018-06-25T06:35:49.999Z,20.16
2018-06-25T06:36:50.230Z,20.06
2018-06-25T06:37:50.458Z,20.10
2018-06-25T06:38:50.689Z,19.94
2018-06-25T06:39:50.930Z,19.94
2018-06-25T06:40:51.153Z,20.03
2018-06-25T06:41:51.383Z,19.92
2018-06-25T06:42:51.617Z,20.03
2018-06-25T06:43:51.851Z,20.07
2018-06-25T06:44:52.085Z,20.19
2018-06-25T06:45:52.315Z,20.10
2018-06-25T06:46:52.551Z,19.96
2018-06-25T06:47:52.781Z,19.81
2018-06-25T06:48:53.014Z,19.85
2018-06-25T06:49:53.244Z,19.73
2018-06-25T06:50:53.474Z,19.77
2018-06-25T06:51:53.707Z,19.64
2018-06-25T06:52:53.937Z,19.64
2018-06-25T06:53:54.166Z,19.76
2018-06-25T06:54:54.399Z,19.73
2018-06-25T06:55:54.628Z,19.82
2018-06-25T06:56:54.855Z,19.91
2018-06-25T06:57:55.094Z,20.02
2018-06-25T06:58:55.325Z,20.22
2018-06-25T06:59:55.557Z,20.26
2018-06-25T07:00:55.790Z,20.50
2018-06-25T07:01:56.025Z,20.63
2018-06-25T07:02:56.254Z,20.55
2018-06-25T07:03:56.495Z,20.87
2018-06-25T07:04:56.717Z,20.92
2018-06-25T07:05:56.946Z,21.11
2018-06-25T07:06:57.245Z,21.12
2018-06-25T07:07:57.405Z,21.29
2018-06-25T07:08:57.649Z,21.07
2018-06-25T07:09:57.867Z,21.11
2018-06-25T07:10:58.099Z,20.80
2018-06-25T07:11:58.335Z,20.82
2018-06-25T07:12:58.563Z,20.81
2018-06-25T07:13:58.792Z,20.88
2018-06-25T07:14:59.026Z,21.00
2018-06-25T07:15:59.256Z,20.90
2018-06-25T07:16:59.490Z,20.92
2018-06-25T07:17:59.718Z,20.82
2018-06-25T07:18:59.948Z,20.80
2018-06-25T07:20:00.178Z,20.78
2018-06-25T07:21:00.408Z,20.69
2018-06-25T07:22:00.642Z,20.60
2018-06-25T07:23:00.878Z,20.65
2018-06-25T07:24:01.103Z,20.62
2018-06-25T07:25:01.337Z,20.22
2018-06-25T07:26:01.567Z,19.86
2018-06-25T07:27:01.800Z,19.76
2018-06-25T07:28:02.038Z,19.64
2018-06-25T07:29:02.266Z,19.63
2018-06-25T07:30:02.531Z,19.66
2018-06-25T07:31:02.729Z,19.39
2018-06-25T07:32:02.967Z,19.48
2018-06-25T07:33:03.182Z,19.36
2018-06-25T07:34:03.414Z,19.40
2018-06-25T07:35:03.648Z,19.15
2018-06-25T07:36:03.879Z,19.22
2018-06-25T07:37:04.108Z,19.21
2018-06-25T07:38:04.338Z,19.16
2018-06-25T07:39:04.574Z,19.21
2018-06-25T07:40:04.812Z,19.34
2018-06-25T07:41:05.024Z,19.36
2018-06-25T07:42:05.265Z,19.36
2018-06-25T07:43:05.486Z,19.18
2018-06-25T07:44:05.717Z,19.26
2018-06-25T07:45:05.947Z,19.34
2018-06-25T07:46:06.178Z,19.51
2018-06-25T07:47:06.435Z,19.54
2018-06-25T07:48:06.640Z,19.54
2018-06-25T07:49:06.872Z,19.59
2018-06-25T07:50:07.101Z,19.37
2018-06-25T07:51:07.323Z,19.49
2018-06-25T07:52:07.573Z,19.58
2018-06-25T07:53:07.802Z,19.64
2018-06-25T07:54:08.033Z,19.91
2018-06-25T07:55:08.267Z,19.89
2018-06-25T07:56:08.496Z,20.04
2018-06-25T07:57:08.730Z,20.28
2018-06-25T07:58:08.955Z,20.34
2018-06-25T07:59:09.186Z,20.44
2018-06-25T08:00:09.420Z,20.58
2018-06-25T08:01:09.651Z,20.74
2018-06-25T08:02:09.884Z,20.65
2018-06-25T08:03:10.114Z,20.81
2018-06-25T08:04:10.347Z,20.90
2018-06-25T08:05:10.580Z,20.82
2018-06-25T08:06:10.804Z,20.59
2018-06-25T08:07:11.036Z,20.28
2018-06-25T08:08:11.260Z,20.32
2018-06-25T08:09:11.497Z,20.11
2018-06-25T08:10:11.793Z,19.91
2018-06-25T08:11:11.970Z,19.69
2018-06-25T08:12:12.199Z,19.66
2018-06-25T08:13:12.430Z,19.51
2018-06-25T08:14:12.665Z,19.37
2018-06-25T08:15:12.897Z,19.37
2018-06-25T08:16:13.168Z,19.34
2018-06-25T08:17:13.362Z,19.19
2018-06-25T08:18:13.591Z,19.26
2018-06-25T08:19:13.823Z,19.12
2018-06-25T08:20:14.060Z,19.24
2018-06-25T08:21:14.284Z,19.24
2018-06-25T08:22:14.513Z,19.44
2018-06-25T08:23:14.745Z,19.56
2018-06-25T08:24:14.976Z,19.73
2018-06-25T08:25:15.209Z,19.91
2018-06-25T08:26:15.434Z,20.07
2018-06-25T08:27:15.661Z,20.19
2018-06-25T08:28:15.898Z,20.28
2018-06-25T08:29:16.120Z,20.56
2018-06-25T08:30:16.420Z,20.70
2018-06-25T08:31:16.583Z,20.72
2018-06-25T08:32:16.815Z,21.00
2018-06-25T08:33:17.047Z,21.15
2018-06-25T08:34:17.335Z,21.12
2018-06-25T08:35:17.515Z,20.88
2018-06-25T08:36:17.746Z,20.93
2018-06-25T08:37:17.976Z,20.96
2018-06-25T08:38:18.210Z,21.06
2018-06-25T08:39:18.445Z,21.30
2018-06-25T08:40:18.709Z,21.37
2018-06-25T08:41:18.903Z,21.46
2018-06-25T08:42:19.133Z,21.67
2018-06-25T08:43:19.367Z,21.91
2018-06-25T08:44:19.597Z,22.04
2018-06-25T08:45:19.830Z,21.66
2018-06-25T08:46:20.058Z,21.48
2018-06-25T08:47:20.290Z,21.14
2018-06-25T08:48:20.526Z,20.95
2018-06-25T08:49:20.762Z,20.75
2018-06-25T08:50:20.986Z,20.69
2018-06-25T08:51:21.218Z,20.52
2018-06-25T08:52:21.457Z,20.43
2018-06-25T08:53:21.691Z,20.59
2018-06-25T08:54:21.927Z,20.60
2018-06-25T08:55:22.161Z,20.80
2018-06-25T08:56:22.390Z,20.92
2018-06-25T08:57:22.625Z,21.14
2018-06-25T08:58:22.853Z,21.25
2018-06-25T08:59:23.085Z,21.25
2018-06-25T09:00:23.323Z,21.42
2018-06-25T09:01:23.550Z,21.45
2018-06-25T09:02:23.781Z,21.48
2018-06-25T09:03:24.012Z,21.05
2018-06-25T09:04:24.299Z,20.97
2018-06-25T09:05:24.468Z,20.99
2018-06-25T09:06:24.701Z,21.09
2018-06-25T09:07:24.936Z,21.24
2018-06-25T09:08:25.167Z,21.27
2018-06-25T09:09:25.401Z,21.20
2018-06-25T09:10:25.643Z,21.33
2018-06-25T09:11:25.869Z,21.35
2018-06-25T09:12:26.098Z,21.02
2018-06-25T09:13:26.334Z,20.99
2018-06-25T09:14:26.562Z,21.06
2018-06-25T09:15:26.911Z,21.18
2018-06-25T09:16:27.029Z,21.30
2018-06-25T09:17:27.264Z,21.42
2018-06-25T09:18:27.494Z,21.51
2018-06-25T09:19:27.725Z,21.58
2018-06-25T09:20:27.962Z,21.30
2018-06-25T09:21:28.195Z,21.11
2018-06-25T09:22:28.426Z,21.11
2018-06-25T09:23:28.659Z,21.25
2018-06-25T09:24:28.892Z,21.29
2018-06-25T09:25:29.121Z,21.32
2018-06-25T09:26:29.357Z,21.43
2018-06-25T09:27:29.590Z,21.42
2018-06-25T09:28:29.823Z,21.36
2018-06-25T09:29:30.062Z,21.32
2018-06-25T09:30:30.288Z,21.51
2018-06-25T09:31:30.525Z,21.57
2018-06-25T09:32:30.760Z,21.62
2018-06-25T09:33:30.994Z,21.70
2018-06-25T09:34:31.222Z,21.91
2018-06-25T09:35:31.452Z,22.06
2018-06-25T09:36:31.685Z,22.17
2018-06-25T09:37:31.919Z,22.33
2018-06-25T09:38:32.149Z,22.44
2018-06-25T09:39:32.383Z,22.47
2018-06-25T09:40:32.615Z,22.44
2018-06-25T09:41:33.046Z,22.32
2018-06-25T09:42:33.089Z,22.23
2018-06-25T09:43:33.325Z,22.13
2018-06-25T09:44:33.554Z,22.07
2018-06-25T09:45:33.790Z,22.02
2018-06-25T09:46:34.021Z,21.62
2018-06-25T09:47:34.256Z,21.57
2018-06-25T09:48:34.488Z,21.35
2018-06-25T09:49:34.721Z,21.30
2018-06-25T09:50:34.956Z,21.17
2018-06-25T09:51:35.182Z,21.25
2018-06-25T09:52:35.416Z,21.03
2018-06-25T09:53:35.648Z,20.93
2018-06-25T09:54:35.868Z,21.02
2018-06-25T09:55:36.103Z,21.11
2018-06-25T09:56:36.339Z,21.32
2018-06-25T09:57:36.571Z,21.48
2018-06-25T09:58:36.805Z,21.50
2018-06-25T09:59:37.035Z,21.54
2018-06-25T10:00:37.267Z,21.70
2018-06-25T10:01:37.506Z,21.85
2018-06-25T10:02:37.737Z,21.88
2018-06-25T10:03:37.971Z,21.82
2018-06-25T10:04:38.200Z,21.93
2018-06-25T10:05:38.431Z,21.85
2018-06-25T10:06:38.664Z,21.67
2018-06-25T10:07:38.896Z,21.72
2018-06-25T10:08:39.132Z,21.66
2018-06-25T10:09:39.366Z,21.91
2018-06-25T10:10:39.670Z,22.07
2018-06-25T10:11:39.834Z,22.28
2018-06-25T10:12:40.072Z,22.33
2018-06-25T10:13:40.300Z,22.54
2018-06-25T10:14:40.531Z,22.69
2018-06-25T10:15:40.766Z,22.91
2018-06-25T10:16:40.997Z,23.08
2018-06-25T10:17:43.934Z,23.17
2018-06-25T10:18:41.411Z,23.18
2018-06-25T10:19:41.656Z,23.27
2018-06-25T10:20:41.923Z,23.46
2018-06-25T10:21:42.136Z,23.40
2018-06-25T10:22:42.372Z,23.24
2018-06-25T10:23:42.603Z,23.03
2018-06-25T10:24:42.831Z,22.98
2018-06-25T10:25:43.076Z,23.13
2018-06-25T10:26:43.302Z,23.27
2018-06-25T10:27:43.547Z,23.32
2018-06-25T10:28:43.772Z,23.43
2018-06-25T10:29:44.005Z,23.55
2018-06-25T10:30:44.241Z,23.50
2018-06-25T10:31:44.474Z,23.47
2018-06-25T10:32:44.708Z,23.51
2018-06-25T10:33:44.936Z,23.71
2018-06-25T10:34:45.186Z,23.84
2018-06-25T10:35:45.411Z,23.80
2018-06-25T10:36:45.654Z,23.77
2018-06-25T10:37:45.877Z,23.92
2018-06-25T10:38:46.113Z,23.84
2018-06-25T10:39:46.349Z,23.88
2018-06-25T10:40:46.580Z,23.83
2018-06-25T10:41:46.812Z,23.68
2018-06-25T10:42:47.046Z,23.55
2018-06-25T10:43:47.263Z,23.66
2018-06-25T10:44:47.499Z,23.76
2018-06-25T10:45:47.730Z,23.56
2018-06-25T10:46:47.978Z,23.32
2018-06-25T10:47:48.190Z,23.09
2018-06-25T10:48:48.423Z,22.93
2018-06-25T10:49:48.650Z,22.72
2018-06-25T10:50:48.883Z,22.80
2018-06-25T10:51:49.116Z,23.08
2018-06-25T10:52:49.352Z,23.27
2018-06-25T10:53:58.281Z,23.41
2018-06-25T10:54:49.825Z,23.39
2018-06-25T10:55:50.057Z,23.48
2018-06-25T10:56:50.296Z,23.50
2018-06-25T10:57:50.549Z,23.54
2018-06-25T10:58:58.494Z,23.56
2018-06-25T10:59:58.874Z,23.56
2018-06-25T11:00:51.265Z,23.48
2018-06-25T11:01:51.504Z,23.41
2018-06-25T11:02:59.412Z,23.34
2018-06-25T11:03:51.979Z,23.46
2018-06-25T11:04:52.211Z,23.40
2018-06-25T11:05:52.483Z,23.15
2018-06-25T11:06:52.683Z,23.17
2018-06-25T11:07:52.918Z,23.27
2018-06-25T11:08:53.148Z,23.17
2018-06-25T11:09:53.393Z,23.36
2018-06-25T11:10:53.626Z,23.27
2018-06-25T11:11:53.861Z,23.24
2018-06-25T11:12:54.146Z,23.25
2018-06-25T11:13:54.329Z,23.36
2018-06-25T11:14:54.563Z,23.51
2018-06-25T11:15:54.800Z,23.55
2018-06-25T11:16:55.038Z,23.66
2018-06-25T11:17:55.272Z,23.77
2018-06-25T11:19:03.149Z,23.77
2018-06-25T11:19:55.739Z,23.66
2018-06-25T11:20:55.976Z,23.69
2018-06-25T11:21:56.210Z,23.80
2018-06-25T11:22:56.444Z,23.77
2018-06-25T11:23:56.677Z,23.86
2018-06-25T11:24:56.917Z,23.88
2018-06-25T11:25:57.145Z,23.83
2018-06-25T11:26:57.450Z,23.81
2018-06-25T11:27:57.612Z,23.99
2018-06-25T11:28:57.847Z,23.92
2018-06-25T11:30:05.742Z,23.99
2018-06-25T11:31:05.978Z,23.98
2018-06-25T11:31:58.567Z,23.87
2018-06-25T11:32:58.800Z,23.98
2018-06-25T11:33:59.033Z,24.06
2018-06-25T11:34:59.267Z,24.17
2018-06-25T11:36:07.159Z,24.23
2018-06-25T11:36:59.743Z,24.42
2018-06-25T11:37:59.979Z,24.57
2018-06-25T11:39:00.215Z,24.55
2018-06-25T11:40:00.446Z,24.74
2018-06-25T11:41:00.697Z,24.77
2018-06-25T11:42:08.570Z,24.88
2018-06-25T11:43:01.168Z,24.89
2018-06-25T11:44:01.402Z,25.01
2018-06-25T11:45:09.293Z,24.93
2018-06-25T11:46:01.887Z,24.89
2018-06-25T11:47:02.125Z,24.68
2018-06-25T11:48:02.358Z,24.48
2018-06-25T11:49:02.591Z,24.36
2018-06-25T11:50:02.821Z,24.45
2018-06-25T11:51:03.066Z,24.50
2018-06-25T11:52:03.296Z,24.51
2018-06-25T11:53:03.530Z,24.48
2018-06-25T11:54:03.761Z,24.47
2018-06-25T11:55:03.997Z,24.66
2018-06-25T11:56:04.230Z,24.73
2018-06-25T11:57:04.465Z,24.69
2018-06-25T11:58:06.630Z,24.77
2018-06-25T11:59:04.979Z,24.60
2018-06-25T12:00:05.268Z,24.68
2018-06-25T12:01:05.446Z,24.68
2018-06-25T12:02:05.695Z,24.50
2018-06-25T12:03:06.094Z,24.38
2018-06-25T12:04:06.154Z,24.68
2018-06-25T12:05:06.388Z,24.77
2018-06-25T12:06:06.620Z,24.65
2018-06-25T12:07:06.851Z,24.81
2018-06-25T12:08:07.090Z,24.53
2018-06-25T12:09:07.320Z,24.74
2018-06-25T12:10:07.552Z,24.68
2018-06-25T12:11:07.787Z,24.68
2018-06-25T12:12:08.041Z,24.58
2018-06-25T12:13:08.261Z,24.51
2018-06-25T12:14:08.549Z,24.60
2018-06-25T12:15:08.732Z,24.69
2018-06-25T12:16:08.964Z,24.76
2018-06-25T12:17:09.208Z,24.77
2018-06-25T12:18:09.435Z,25.03
2018-06-25T12:19:09.741Z,25.03
2018-06-25T12:20:09.970Z,25.14
2018-06-25T12:21:10.141Z,25.07
2018-06-25T12:22:10.393Z,25.04
2018-06-25T12:23:10.719Z,24.80
2018-06-25T12:24:10.854Z,24.63
2018-06-25T12:25:11.084Z,24.76
2018-06-25T12:26:11.320Z,24.55
2018-06-25T12:27:11.555Z,24.54
2018-06-25T12:28:11.797Z,24.32
2018-06-25T12:29:12.024Z,23.99
2018-06-25T12:30:12.283Z,23.98
2018-06-25T12:31:20.144Z,24.14
2018-06-25T12:32:12.784Z,24.24
2018-06-25T12:33:12.973Z,24.51
2018-06-25T12:34:13.206Z,24.70
2018-06-25T12:35:13.445Z,24.77
2018-06-25T12:36:13.673Z,24.78
2018-06-25T12:37:13.909Z,24.80
2018-06-25T12:38:14.140Z,24.77
2018-06-25T12:39:14.376Z,24.85
2018-06-25T12:40:14.609Z,24.93
2018-06-25T12:41:14.846Z,25.06
2018-06-25T12:42:15.078Z,24.99
2018-06-25T12:43:15.376Z,24.86
2018-06-25T12:44:15.550Z,24.78
2018-06-25T12:45:15.779Z,24.77
2018-06-25T12:46:16.017Z,24.88
2018-06-25T12:47:16.251Z,24.93
2018-06-25T12:48:16.535Z,25.04
2018-06-25T12:49:16.722Z,25.16
2018-06-25T12:50:16.956Z,25.43
2018-06-25T12:51:17.193Z,25.48
2018-06-25T12:52:17.425Z,25.50
2018-06-25T12:53:17.659Z,25.58
2018-06-25T12:54:17.897Z,25.73
2018-06-25T12:55:18.135Z,25.88